sensor_id;sensor_type;location;lat;lon;timestamp;P1;durP1;ratioP1;P2;durP2;ratioP2
72404;SDS011;60395;52.020;113.548;2023-09-19T00:00:02;25.30;;;10.75;;
72404;SDS011;60395;52.020;113.548;2023-09-19T00:03:09;21.67;;;10.80;;
72404;SDS011;60395;52.020;113.548;2023-09-19T00:06:14;32.88;;;11.02;;
72404;SDS011;60395;52.020;113.548;2023-09-19T00:09:18;25.03;;;10.13;;
72404;SDS011;60395;52.020;113.548;2023-09-19T00:12:21;28.50;;;10.43;;
72404;SDS011;60395;52.020;113.548;2023-09-19T00:15:24;28.38;;;10.60;;
72404;SDS011;60395;52.020;113.548;2023-09-19T00:18:31;23.05;;;9.82;;
72404;SDS011;60395;52.020;113.548;2023-09-19T00:21:34;20.65;;;9.38;;
72404;SDS011;60395;52.020;113.548;2023-09-19T00:24:40;20.52;;;10.45;;
72404;SDS011;60395;52.020;113.548;2023-09-19T00:27:43;28.45;;;10.38;;
72404;SDS011;60395;52.020;113.548;2023-09-19T00:30:47;27.33;;;10.90;;
72404;SDS011;60395;52.020;113.548;2023-09-19T00:33:53;29.90;;;11.60;;
72404;SDS011;60395;52.020;113.548;2023-09-19T00:36:56;24.05;;;11.30;;
72404;SDS011;60395;52.020;113.548;2023-09-19T00:39:59;26.17;;;11.70;;
72404;SDS011;60395;52.020;113.548;2023-09-19T00:43:03;27.70;;;11.45;;
72404;SDS011;60395;52.020;113.548;2023-09-19T00:46:07;28.38;;;11.93;;
72404;SDS011;60395;52.020;113.548;2023-09-19T00:49:11;27.67;;;12.32;;
72404;SDS011;60395;52.020;113.548;2023-09-19T00:52:16;34.85;;;14.18;;
72404;SDS011;60395;52.020;113.548;2023-09-19T00:55:22;32.10;;;14.45;;
72404;SDS011;60395;52.020;113.548;2023-09-19T00:58:27;39.85;;;18.55;;
72404;SDS011;60395;52.020;113.548;2023-09-19T01:01:36;35.88;;;18.48;;
72404;SDS011;60395;52.020;113.548;2023-09-19T01:04:42;41.92;;;18.70;;
72404;SDS011;60395;52.020;113.548;2023-09-19T01:07:46;35.35;;;19.55;;
72404;SDS011;60395;52.020;113.548;2023-09-19T01:10:59;42.60;;;19.17;;
72404;SDS011;60395;52.020;113.548;2023-09-19T01:17:34;36.17;;;18.52;;
72404;SDS011;60395;52.020;113.548;2023-09-19T01:30:55;42.55;;;17.77;;
72404;SDS011;60395;52.020;113.548;2023-09-19T01:34:03;37.70;;;17.30;;
72404;SDS011;60395;52.020;113.548;2023-09-19T01:37:10;50.60;;;17.80;;
72404;SDS011;60395;52.020;113.548;2023-09-19T01:40:14;32.30;;;15.65;;
72404;SDS011;60395;52.020;113.548;2023-09-19T01:43:28;35.05;;;16.42;;
72404;SDS011;60395;52.020;113.548;2023-09-19T01:46:45;43.83;;;20.38;;
72404;SDS011;60395;52.020;113.548;2023-09-19T01:49:59;48.28;;;22.63;;
72404;SDS011;60395;52.020;113.548;2023-09-19T01:56:57;56.42;;;24.67;;
72404;SDS011;60395;52.020;113.548;2023-09-19T02:00:08;45.07;;;21.67;;
72404;SDS011;60395;52.020;113.548;2023-09-19T02:03:15;50.42;;;22.52;;
72404;SDS011;60395;52.020;113.548;2023-09-19T02:06:19;57.75;;;20.90;;
72404;SDS011;60395;52.020;113.548;2023-09-19T02:09:25;39.38;;;17.60;;
72404;SDS011;60395;52.020;113.548;2023-09-19T02:12:29;32.22;;;14.38;;
72404;SDS011;60395;52.020;113.548;2023-09-19T02:15:37;31.45;;;11.80;;
72404;SDS011;60395;52.020;113.548;2023-09-19T02:18:40;23.55;;;10.18;;
72404;SDS011;60395;52.020;113.548;2023-09-19T02:21:43;32.90;;;12.65;;
72404;SDS011;60395;52.020;113.548;2023-09-19T02:24:46;42.10;;;11.43;;
72404;SDS011;60395;52.020;113.548;2023-09-19T02:27:50;26.20;;;11.43;;
72404;SDS011;60395;52.020;113.548;2023-09-19T02:30:58;33.17;;;11.10;;
72404;SDS011;60395;52.020;113.548;2023-09-19T02:34:02;30.83;;;11.87;;
72404;SDS011;60395;52.020;113.548;2023-09-19T02:37:05;30.20;;;9.45;;
72404;SDS011;60395;52.020;113.548;2023-09-19T02:40:08;23.50;;;7.82;;
72404;SDS011;60395;52.020;113.548;2023-09-19T02:43:22;19.95;;;8.07;;
72404;SDS011;60395;52.020;113.548;2023-09-19T02:46:25;11.02;;;3.45;;
72404;SDS011;60395;52.020;113.548;2023-09-19T02:49:29;11.15;;;2.92;;
72404;SDS011;60395;52.020;113.548;2023-09-19T02:52:32;7.82;;;2.58;;
72404;SDS011;60395;52.020;113.548;2023-09-19T02:55:36;5.27;;;2.07;;
72404;SDS011;60395;52.020;113.548;2023-09-19T02:58:40;8.85;;;2.20;;
72404;SDS011;60395;52.020;113.548;2023-09-19T03:01:45;3.22;;;2.00;;
72404;SDS011;60395;52.020;113.548;2023-09-19T03:04:50;4.90;;;2.28;;
72404;SDS011;60395;52.020;113.548;2023-09-19T03:07:54;4.90;;;2.20;;
72404;SDS011;60395;52.020;113.548;2023-09-19T03:10:58;8.13;;;2.47;;
72404;SDS011;60395;52.020;113.548;2023-09-19T03:14:03;5.97;;;2.40;;
72404;SDS011;60395;52.020;113.548;2023-09-19T03:17:06;6.20;;;2.25;;
72404;SDS011;60395;52.020;113.548;2023-09-19T03:20:12;4.78;;;2.38;;
72404;SDS011;60395;52.020;113.548;2023-09-19T03:23:16;8.70;;;2.50;;
72404;SDS011;60395;52.020;113.548;2023-09-19T03:26:19;9.63;;;3.30;;
72404;SDS011;60395;52.020;113.548;2023-09-19T03:29:23;6.68;;;2.60;;
72404;SDS011;60395;52.020;113.548;2023-09-19T03:32:27;8.13;;;2.70;;
72404;SDS011;60395;52.020;113.548;2023-09-19T03:35:31;6.22;;;2.28;;
72404;SDS011;60395;52.020;113.548;2023-09-19T03:38:35;9.10;;;2.50;;
72404;SDS011;60395;52.020;113.548;2023-09-19T03:41:38;5.03;;;2.03;;
72404;SDS011;60395;52.020;113.548;2023-09-19T03:44:42;7.20;;;2.55;;
72404;SDS011;60395;52.020;113.548;2023-09-19T03:47:46;7.05;;;2.70;;
72404;SDS011;60395;52.020;113.548;2023-09-19T03:50:55;8.15;;;2.50;;
72404;SDS011;60395;52.020;113.548;2023-09-19T03:53:59;7.88;;;2.65;;
72404;SDS011;60395;52.020;113.548;2023-09-19T03:57:02;5.63;;;2.47;;
72404;SDS011;60395;52.020;113.548;2023-09-19T04:00:07;7.82;;;3.00;;
72404;SDS011;60395;52.020;113.548;2023-09-19T04:03:14;6.78;;;2.65;;
72404;SDS011;60395;52.020;113.548;2023-09-19T04:06:24;5.43;;;2.45;;
72404;SDS011;60395;52.020;113.548;2023-09-19T04:09:29;10.70;;;2.90;;
72404;SDS011;60395;52.020;113.548;2023-09-19T04:12:33;10.30;;;2.63;;
72404;SDS011;60395;52.020;113.548;2023-09-19T04:15:36;7.00;;;2.45;;
72404;SDS011;60395;52.020;113.548;2023-09-19T04:18:40;9.17;;;2.83;;
72404;SDS011;60395;52.020;113.548;2023-09-19T04:21:43;15.55;;;3.50;;
72404;SDS011;60395;52.020;113.548;2023-09-19T04:24:47;11.57;;;3.25;;
72404;SDS011;60395;52.020;113.548;2023-09-19T04:27:50;11.52;;;3.50;;
72404;SDS011;60395;52.020;113.548;2023-09-19T04:30:53;12.05;;;3.28;;
72404;SDS011;60395;52.020;113.548;2023-09-19T04:33:57;15.45;;;3.35;;
72404;SDS011;60395;52.020;113.548;2023-09-19T04:37:03;19.23;;;4.85;;
72404;SDS011;60395;52.020;113.548;2023-09-19T04:40:07;21.15;;;3.80;;
72404;SDS011;60395;52.020;113.548;2023-09-19T04:43:15;8.73;;;3.95;;
72404;SDS011;60395;52.020;113.548;2023-09-19T04:46:18;14.07;;;3.33;;
72404;SDS011;60395;52.020;113.548;2023-09-19T04:49:21;10.55;;;3.28;;
72404;SDS011;60395;52.020;113.548;2023-09-19T04:52:24;17.52;;;5.90;;
72404;SDS011;60395;52.020;113.548;2023-09-19T04:55:28;9.25;;;3.47;;
72404;SDS011;60395;52.020;113.548;2023-09-19T04:58:33;10.30;;;4.45;;
72404;SDS011;60395;52.020;113.548;2023-09-19T05:01:36;7.95;;;3.33;;
72404;SDS011;60395;52.020;113.548;2023-09-19T05:04:39;13.40;;;3.47;;
72404;SDS011;60395;52.020;113.548;2023-09-19T05:07:43;11.02;;;2.88;;
72404;SDS011;60395;52.020;113.548;2023-09-19T05:10:49;7.88;;;2.97;;
72404;SDS011;60395;52.020;113.548;2023-09-19T05:13:53;8.25;;;3.15;;
72404;SDS011;60395;52.020;113.548;2023-09-19T05:16:56;8.40;;;2.70;;
72404;SDS011;60395;52.020;113.548;2023-09-19T05:19:59;9.55;;;3.08;;
72404;SDS011;60395;52.020;113.548;2023-09-19T05:23:17;8.57;;;3.28;;
72404;SDS011;60395;52.020;113.548;2023-09-19T05:26:23;9.07;;;3.40;;
72404;SDS011;60395;52.020;113.548;2023-09-19T05:29:26;7.88;;;2.47;;
72404;SDS011;60395;52.020;113.548;2023-09-19T05:35:34;8.30;;;2.92;;
72404;SDS011;60395;52.020;113.548;2023-09-19T05:38:42;6.72;;;2.80;;
72404;SDS011;60395;52.020;113.548;2023-09-19T05:41:46;9.13;;;2.55;;
72404;SDS011;60395;52.020;113.548;2023-09-19T05:44:50;5.05;;;3.15;;
72404;SDS011;60395;52.020;113.548;2023-09-19T05:47:53;4.65;;;2.28;;
72404;SDS011;60395;52.020;113.548;2023-09-19T05:51:06;5.63;;;2.40;;
72404;SDS011;60395;52.020;113.548;2023-09-19T05:54:10;4.10;;;2.17;;
72404;SDS011;60395;52.020;113.548;2023-09-19T05:57:13;6.57;;;3.40;;
72404;SDS011;60395;52.020;113.548;2023-09-19T06:00:20;5.82;;;2.80;;
72404;SDS011;60395;52.020;113.548;2023-09-19T06:03:25;5.95;;;2.35;;
72404;SDS011;60395;52.020;113.548;2023-09-19T06:06:28;4.65;;;2.20;;
72404;SDS011;60395;52.020;113.548;2023-09-19T06:09:32;7.53;;;2.72;;
72404;SDS011;60395;52.020;113.548;2023-09-19T06:12:39;6.60;;;2.63;;
72404;SDS011;60395;52.020;113.548;2023-09-19T06:15:46;8.25;;;2.75;;
72404;SDS011;60395;52.020;113.548;2023-09-19T06:18:49;7.15;;;2.80;;
72404;SDS011;60395;52.020;113.548;2023-09-19T06:21:53;8.02;;;2.28;;
72404;SDS011;60395;52.020;113.548;2023-09-19T06:24:56;6.20;;;2.78;;
72404;SDS011;60395;52.020;113.548;2023-09-19T06:27:59;8.38;;;2.60;;
72404;SDS011;60395;52.020;113.548;2023-09-19T06:31:07;6.47;;;2.60;;
72404;SDS011;60395;52.020;113.548;2023-09-19T06:37:17;10.68;;;2.60;;
72404;SDS011;60395;52.020;113.548;2023-09-19T06:40:21;8.05;;;2.83;;
72404;SDS011;60395;52.020;113.548;2023-09-19T06:43:24;5.20;;;2.45;;
72404;SDS011;60395;52.020;113.548;2023-09-19T06:46:27;5.95;;;2.22;;
72404;SDS011;60395;52.020;113.548;2023-09-19T06:49:36;3.70;;;2.10;;
72404;SDS011;60395;52.020;113.548;2023-09-19T06:52:40;4.35;;;2.15;;
72404;SDS011;60395;52.020;113.548;2023-09-19T06:55:44;3.75;;;1.98;;
72404;SDS011;60395;52.020;113.548;2023-09-19T06:58:47;4.82;;;2.58;;
72404;SDS011;60395;52.020;113.548;2023-09-19T07:01:51;7.93;;;1.83;;
72404;SDS011;60395;52.020;113.548;2023-09-19T07:04:55;2.80;;;1.90;;
72404;SDS011;60395;52.020;113.548;2023-09-19T07:07:59;5.28;;;1.85;;
72404;SDS011;60395;52.020;113.548;2023-09-19T07:11:05;6.28;;;1.83;;
72404;SDS011;60395;52.020;113.548;2023-09-19T07:14:09;4.60;;;2.50;;
72404;SDS011;60395;52.020;113.548;2023-09-19T07:17:15;4.03;;;2.17;;
72404;SDS011;60395;52.020;113.548;2023-09-19T07:20:24;6.22;;;2.20;;
72404;SDS011;60395;52.020;113.548;2023-09-19T07:23:34;9.00;;;2.30;;
72404;SDS011;60395;52.020;113.548;2023-09-19T07:26:37;5.15;;;1.90;;
72404;SDS011;60395;52.020;113.548;2023-09-19T07:29:42;5.07;;;2.20;;
72404;SDS011;60395;52.020;113.548;2023-09-19T07:32:46;4.23;;;2.27;;
72404;SDS011;60395;52.020;113.548;2023-09-19T07:35:50;5.43;;;2.13;;
72404;SDS011;60395;52.020;113.548;2023-09-19T07:38:53;5.93;;;2.55;;
72404;SDS011;60395;52.020;113.548;2023-09-19T07:42:07;9.53;;;2.43;;
72404;SDS011;60395;52.020;113.548;2023-09-19T07:45:10;6.38;;;1.98;;
72404;SDS011;60395;52.020;113.548;2023-09-19T07:48:16;5.95;;;2.10;;
72404;SDS011;60395;52.020;113.548;2023-09-19T07:51:20;5.78;;;1.90;;
72404;SDS011;60395;52.020;113.548;2023-09-19T07:54:23;8.40;;;2.10;;
72404;SDS011;60395;52.020;113.548;2023-09-19T07:57:26;3.83;;;2.00;;
72404;SDS011;60395;52.020;113.548;2023-09-19T08:00:31;6.30;;;1.70;;
72404;SDS011;60395;52.020;113.548;2023-09-19T08:03:37;10.10;;;2.13;;
72404;SDS011;60395;52.020;113.548;2023-09-19T08:06:43;11.60;;;2.28;;
72404;SDS011;60395;52.020;113.548;2023-09-19T08:09:47;6.30;;;2.55;;
72404;SDS011;60395;52.020;113.548;2023-09-19T08:12:51;4.88;;;1.88;;
72404;SDS011;60395;52.020;113.548;2023-09-19T08:16:02;9.35;;;2.15;;
72404;SDS011;60395;52.020;113.548;2023-09-19T08:19:07;4.93;;;2.50;;
72404;SDS011;60395;52.020;113.548;2023-09-19T08:22:11;7.43;;;2.03;;
72404;SDS011;60395;52.020;113.548;2023-09-19T08:25:14;6.15;;;3.28;;
72404;SDS011;60395;52.020;113.548;2023-09-19T08:28:21;6.68;;;2.30;;
72404;SDS011;60395;52.020;113.548;2023-09-19T08:31:26;3.92;;;1.73;;
72404;SDS011;60395;52.020;113.548;2023-09-19T08:34:33;5.57;;;2.00;;
72404;SDS011;60395;52.020;113.548;2023-09-19T08:37:36;4.70;;;2.15;;
72404;SDS011;60395;52.020;113.548;2023-09-19T08:40:40;5.53;;;2.80;;
72404;SDS011;60395;52.020;113.548;2023-09-19T08:46:49;5.60;;;1.92;;
72404;SDS011;60395;52.020;113.548;2023-09-19T08:57:03;3.03;;;1.80;;
72404;SDS011;60395;52.020;113.548;2023-09-19T09:00:14;8.00;;;2.17;;
72404;SDS011;60395;52.020;113.548;2023-09-19T09:03:20;6.50;;;2.10;;
72404;SDS011;60395;52.020;113.548;2023-09-19T09:06:25;7.55;;;2.63;;
72404;SDS011;60395;52.020;113.548;2023-09-19T09:09:30;5.38;;;3.05;;
72404;SDS011;60395;52.020;113.548;2023-09-19T09:12:36;7.78;;;2.22;;
72404;SDS011;60395;52.020;113.548;2023-09-19T09:15:43;7.45;;;3.00;;
72404;SDS011;60395;52.020;113.548;2023-09-19T09:18:47;5.38;;;2.22;;
72404;SDS011;60395;52.020;113.548;2023-09-19T09:22:09;7.20;;;3.70;;
72404;SDS011;60395;52.020;113.548;2023-09-19T09:25:13;8.95;;;3.22;;
72404;SDS011;60395;52.020;113.548;2023-09-19T09:28:27;14.80;;;3.63;;
72404;SDS011;60395;52.020;113.548;2023-09-19T09:31:31;9.05;;;2.67;;
72404;SDS011;60395;52.020;113.548;2023-09-19T09:34:35;14.85;;;3.60;;
72404;SDS011;60395;52.020;113.548;2023-09-19T09:37:38;16.08;;;3.30;;
72404;SDS011;60395;52.020;113.548;2023-09-19T09:40:46;15.10;;;3.13;;
72404;SDS011;60395;52.020;113.548;2023-09-19T09:43:55;13.20;;;2.85;;
72404;SDS011;60395;52.020;113.548;2023-09-19T09:46:58;12.20;;;2.30;;
72404;SDS011;60395;52.020;113.548;2023-09-19T09:50:28;10.90;;;3.40;;
72404;SDS011;60395;52.020;113.548;2023-09-19T09:53:53;15.98;;;3.20;;
72404;SDS011;60395;52.020;113.548;2023-09-19T09:57:14;32.15;;;6.05;;
72404;SDS011;60395;52.020;113.548;2023-09-19T10:00:23;12.38;;;3.40;;
72404;SDS011;60395;52.020;113.548;2023-09-19T10:03:35;7.85;;;3.90;;
72404;SDS011;60395;52.020;113.548;2023-09-19T10:06:46;22.20;;;9.68;;
72404;SDS011;60395;52.020;113.548;2023-09-19T10:09:53;26.33;;;11.75;;
72404;SDS011;60395;52.020;113.548;2023-09-19T10:13:07;20.95;;;11.32;;
72404;SDS011;60395;52.020;113.548;2023-09-19T10:16:14;18.85;;;8.65;;
72404;SDS011;60395;52.020;113.548;2023-09-19T10:19:29;11.50;;;4.50;;
72404;SDS011;60395;52.020;113.548;2023-09-19T10:22:36;7.75;;;3.50;;
72404;SDS011;60395;52.020;113.548;2023-09-19T10:25:41;7.63;;;3.55;;
72404;SDS011;60395;52.020;113.548;2023-09-19T10:28:48;6.00;;;2.40;;
72404;SDS011;60395;52.020;113.548;2023-09-19T10:31:52;5.45;;;2.50;;
72404;SDS011;60395;52.020;113.548;2023-09-19T10:34:57;5.70;;;2.33;;
72404;SDS011;60395;52.020;113.548;2023-09-19T10:38:01;5.90;;;2.55;;
72404;SDS011;60395;52.020;113.548;2023-09-19T10:41:06;6.82;;;2.50;;
72404;SDS011;60395;52.020;113.548;2023-09-19T10:44:10;5.75;;;2.67;;
72404;SDS011;60395;52.020;113.548;2023-09-19T10:47:16;7.28;;;2.78;;
72404;SDS011;60395;52.020;113.548;2023-09-19T10:50:21;9.55;;;2.78;;
72404;SDS011;60395;52.020;113.548;2023-09-19T10:53:25;8.68;;;4.70;;
72404;SDS011;60395;52.020;113.548;2023-09-19T10:56:34;6.53;;;3.25;;
72404;SDS011;60395;52.020;113.548;2023-09-19T10:59:39;8.50;;;3.10;;
72404;SDS011;60395;52.020;113.548;2023-09-19T11:03:16;7.25;;;2.90;;
72404;SDS011;60395;52.020;113.548;2023-09-19T11:06:28;7.30;;;2.85;;
72404;SDS011;60395;52.020;113.548;2023-09-19T11:09:50;4.85;;;2.70;;
72404;SDS011;60395;52.020;113.548;2023-09-19T11:12:56;7.47;;;3.05;;
72404;SDS011;60395;52.020;113.548;2023-09-19T11:19:04;23.17;;;8.93;;
72404;SDS011;60395;52.020;113.548;2023-09-19T11:22:09;36.47;;;18.77;;
72404;SDS011;60395;52.020;113.548;2023-09-19T11:28:34;19.77;;;9.65;;
72404;SDS011;60395;52.020;113.548;2023-09-19T11:31:42;11.93;;;5.15;;
72404;SDS011;60395;52.020;113.548;2023-09-19T11:34:47;8.20;;;4.35;;
72404;SDS011;60395;52.020;113.548;2023-09-19T11:41:36;9.55;;;4.68;;
72404;SDS011;60395;52.020;113.548;2023-09-19T11:44:32;8.40;;;4.93;;
72404;SDS011;60395;52.020;113.548;2023-09-19T11:47:37;6.40;;;2.95;;
72404;SDS011;60395;52.020;113.548;2023-09-19T11:50:42;6.30;;;3.93;;
72404;SDS011;60395;52.020;113.548;2023-09-19T11:53:50;5.43;;;2.85;;
72404;SDS011;60395;52.020;113.548;2023-09-19T11:56:54;6.63;;;3.30;;
72404;SDS011;60395;52.020;113.548;2023-09-19T11:59:58;8.55;;;3.55;;
72404;SDS011;60395;52.020;113.548;2023-09-19T12:03:09;5.53;;;3.22;;
72404;SDS011;60395;52.020;113.548;2023-09-19T12:06:14;6.20;;;3.00;;
72404;SDS011;60395;52.020;113.548;2023-09-19T12:09:21;7.00;;;2.85;;
72404;SDS011;60395;52.020;113.548;2023-09-19T12:12:25;8.77;;;4.68;;
72404;SDS011;60395;52.020;113.548;2023-09-19T12:15:29;5.78;;;2.75;;
72404;SDS011;60395;52.020;113.548;2023-09-19T12:18:41;4.22;;;2.05;;
72404;SDS011;60395;52.020;113.548;2023-09-19T12:21:53;6.30;;;2.90;;
72404;SDS011;60395;52.020;113.548;2023-09-19T12:25:06;6.22;;;3.35;;
72404;SDS011;60395;52.020;113.548;2023-09-19T12:28:10;9.30;;;2.78;;
72404;SDS011;60395;52.020;113.548;2023-09-19T12:31:14;9.60;;;3.42;;
72404;SDS011;60395;52.020;113.548;2023-09-19T12:34:21;11.35;;;4.03;;
72404;SDS011;60395;52.020;113.548;2023-09-19T12:37:31;7.63;;;3.80;;
72404;SDS011;60395;52.020;113.548;2023-09-19T12:40:39;7.20;;;3.83;;
72404;SDS011;60395;52.020;113.548;2023-09-19T12:43:47;6.90;;;3.58;;
72404;SDS011;60395;52.020;113.548;2023-09-19T12:46:51;6.93;;;3.00;;
72404;SDS011;60395;52.020;113.548;2023-09-19T12:50:07;5.05;;;2.75;;
72404;SDS011;60395;52.020;113.548;2023-09-19T12:53:24;10.35;;;5.18;;
72404;SDS011;60395;52.020;113.548;2023-09-19T12:56:39;14.15;;;6.40;;
72404;SDS011;60395;52.020;113.548;2023-09-19T13:06:37;15.27;;;5.32;;
72404;SDS011;60395;52.020;113.548;2023-09-19T13:10:02;10.43;;;4.40;;
72404;SDS011;60395;52.020;113.548;2023-09-19T13:13:22;8.65;;;2.63;;
72404;SDS011;60395;52.020;113.548;2023-09-19T13:16:32;5.60;;;2.85;;
72404;SDS011;60395;52.020;113.548;2023-09-19T13:22:52;5.22;;;2.25;;
72404;SDS011;60395;52.020;113.548;2023-09-19T13:29:00;6.15;;;3.13;;
72404;SDS011;60395;52.020;113.548;2023-09-19T13:32:04;5.13;;;2.50;;
72404;SDS011;60395;52.020;113.548;2023-09-19T13:35:10;8.43;;;4.07;;
72404;SDS011;60395;52.020;113.548;2023-09-19T13:38:14;8.52;;;3.50;;
72404;SDS011;60395;52.020;113.548;2023-09-19T13:41:18;6.00;;;2.65;;
72404;SDS011;60395;52.020;113.548;2023-09-19T13:44:21;5.25;;;1.98;;
72404;SDS011;60395;52.020;113.548;2023-09-19T13:47:25;6.75;;;2.33;;
72404;SDS011;60395;52.020;113.548;2023-09-19T13:50:29;5.10;;;2.33;;
72404;SDS011;60395;52.020;113.548;2023-09-19T13:53:34;5.57;;;2.35;;
72404;SDS011;60395;52.020;113.548;2023-09-19T13:56:37;4.28;;;2.20;;
72404;SDS011;60395;52.020;113.548;2023-09-19T13:59:41;6.70;;;2.40;;
72404;SDS011;60395;52.020;113.548;2023-09-19T14:02:45;7.25;;;1.95;;
72404;SDS011;60395;52.020;113.548;2023-09-19T14:05:49;9.38;;;2.60;;
72404;SDS011;60395;52.020;113.548;2023-09-19T14:08:54;7.00;;;2.38;;
72404;SDS011;60395;52.020;113.548;2023-09-19T14:11:57;4.68;;;2.72;;
72404;SDS011;60395;52.020;113.548;2023-09-19T14:15:01;5.85;;;2.97;;
72404;SDS011;60395;52.020;113.548;2023-09-19T14:18:04;7.53;;;3.28;;
72404;SDS011;60395;52.020;113.548;2023-09-19T14:21:08;5.28;;;2.40;;
72404;SDS011;60395;52.020;113.548;2023-09-19T14:24:16;6.95;;;2.47;;
72404;SDS011;60395;52.020;113.548;2023-09-19T14:27:20;4.68;;;2.25;;
72404;SDS011;60395;52.020;113.548;2023-09-19T14:30:23;5.55;;;2.30;;
72404;SDS011;60395;52.020;113.548;2023-09-19T14:33:26;6.55;;;2.40;;
72404;SDS011;60395;52.020;113.548;2023-09-19T14:36:30;8.23;;;3.47;;
72404;SDS011;60395;52.020;113.548;2023-09-19T14:39:33;10.77;;;3.50;;
72404;SDS011;60395;52.020;113.548;2023-09-19T14:42:38;8.07;;;2.67;;
72404;SDS011;60395;52.020;113.548;2023-09-19T14:45:42;6.57;;;2.28;;
72404;SDS011;60395;52.020;113.548;2023-09-19T14:48:45;5.65;;;2.55;;
72404;SDS011;60395;52.020;113.548;2023-09-19T14:51:51;8.85;;;2.60;;
72404;SDS011;60395;52.020;113.548;2023-09-19T14:54:54;11.95;;;2.97;;
72404;SDS011;60395;52.020;113.548;2023-09-19T14:57:58;7.43;;;2.58;;
72404;SDS011;60395;52.020;113.548;2023-09-19T15:01:06;9.75;;;2.88;;
72404;SDS011;60395;52.020;113.548;2023-09-19T15:04:10;7.65;;;2.33;;
72404;SDS011;60395;52.020;113.548;2023-09-19T15:07:14;14.43;;;2.83;;
72404;SDS011;60395;52.020;113.548;2023-09-19T15:10:17;12.02;;;2.80;;
72404;SDS011;60395;52.020;113.548;2023-09-19T15:13:21;12.27;;;3.00;;
72404;SDS011;60395;52.020;113.548;2023-09-19T15:16:24;7.00;;;2.92;;
72404;SDS011;60395;52.020;113.548;2023-09-19T15:19:27;8.82;;;2.67;;
72404;SDS011;60395;52.020;113.548;2023-09-19T15:22:31;7.10;;;2.40;;
72404;SDS011;60395;52.020;113.548;2023-09-19T15:25:34;8.52;;;2.47;;
72404;SDS011;60395;52.020;113.548;2023-09-19T15:28:37;5.97;;;2.15;;
72404;SDS011;60395;52.020;113.548;2023-09-19T15:31:42;10.10;;;2.40;;
72404;SDS011;60395;52.020;113.548;2023-09-19T15:34:47;5.63;;;2.30;;
72404;SDS011;60395;52.020;113.548;2023-09-19T15:40:55;12.63;;;3.50;;
72404;SDS011;60395;52.020;113.548;2023-09-19T15:43:59;8.00;;;3.53;;
72404;SDS011;60395;52.020;113.548;2023-09-19T15:47:04;10.13;;;3.13;;
72404;SDS011;60395;52.020;113.548;2023-09-19T15:50:08;7.68;;;2.63;;
72404;SDS011;60395;52.020;113.548;2023-09-19T15:56:16;11.50;;;2.70;;
72404;SDS011;60395;52.020;113.548;2023-09-19T15:59:20;9.15;;;2.65;;
72404;SDS011;60395;52.020;113.548;2023-09-19T16:02:23;7.20;;;2.85;;
72404;SDS011;60395;52.020;113.548;2023-09-19T16:05:34;10.40;;;2.55;;
72404;SDS011;60395;52.020;113.548;2023-09-19T16:08:40;4.82;;;2.00;;
72404;SDS011;60395;52.020;113.548;2023-09-19T16:11:44;3.72;;;2.17;;
72404;SDS011;60395;52.020;113.548;2023-09-19T16:14:47;5.03;;;2.08;;
72404;SDS011;60395;52.020;113.548;2023-09-19T16:17:51;8.25;;;2.72;;
72404;SDS011;60395;52.020;113.548;2023-09-19T16:21:00;4.88;;;2.47;;
72404;SDS011;60395;52.020;113.548;2023-09-19T16:24:05;4.63;;;2.40;;
72404;SDS011;60395;52.020;113.548;2023-09-19T16:27:11;7.47;;;3.20;;
72404;SDS011;60395;52.020;113.548;2023-09-19T16:30:14;12.80;;;3.60;;
72404;SDS011;60395;52.020;113.548;2023-09-19T16:33:18;18.13;;;5.90;;
72404;SDS011;60395;52.020;113.548;2023-09-19T16:36:22;12.25;;;4.45;;
72404;SDS011;60395;52.020;113.548;2023-09-19T16:39:26;7.32;;;3.05;;
72404;SDS011;60395;52.020;113.548;2023-09-19T16:42:29;6.60;;;3.10;;
72404;SDS011;60395;52.020;113.548;2023-09-19T16:45:40;7.18;;;3.00;;
72404;SDS011;60395;52.020;113.548;2023-09-19T16:48:46;13.82;;;3.47;;
72404;SDS011;60395;52.020;113.548;2023-09-19T16:51:56;10.25;;;3.40;;
72404;SDS011;60395;52.020;113.548;2023-09-19T16:54:59;13.32;;;4.05;;
72404;SDS011;60395;52.020;113.548;2023-09-19T16:58:03;10.05;;;4.35;;
72404;SDS011;60395;52.020;113.548;2023-09-19T17:01:08;9.32;;;3.85;;
72404;SDS011;60395;52.020;113.548;2023-09-19T17:04:11;10.05;;;4.20;;
72404;SDS011;60395;52.020;113.548;2023-09-19T17:07:15;9.18;;;3.55;;
72404;SDS011;60395;52.020;113.548;2023-09-19T17:10:18;10.45;;;3.60;;
72404;SDS011;60395;52.020;113.548;2023-09-19T17:13:21;7.68;;;2.97;;
72404;SDS011;60395;52.020;113.548;2023-09-19T17:16:25;10.20;;;3.10;;
72404;SDS011;60395;52.020;113.548;2023-09-19T17:19:31;6.07;;;2.70;;
72404;SDS011;60395;52.020;113.548;2023-09-19T17:22:35;6.43;;;2.90;;
72404;SDS011;60395;52.020;113.548;2023-09-19T17:25:38;6.03;;;2.65;;
72404;SDS011;60395;52.020;113.548;2023-09-19T17:28:41;12.15;;;3.70;;
72404;SDS011;60395;52.020;113.548;2023-09-19T17:31:47;8.98;;;3.20;;
72404;SDS011;60395;52.020;113.548;2023-09-19T17:34:51;7.03;;;3.35;;
72404;SDS011;60395;52.020;113.548;2023-09-19T17:37:54;7.90;;;2.95;;
72404;SDS011;60395;52.020;113.548;2023-09-19T17:41:00;9.07;;;3.13;;
72404;SDS011;60395;52.020;113.548;2023-09-19T17:44:10;5.07;;;2.80;;
72404;SDS011;60395;52.020;113.548;2023-09-19T17:47:14;6.77;;;2.60;;
72404;SDS011;60395;52.020;113.548;2023-09-19T17:50:20;7.93;;;3.25;;
72404;SDS011;60395;52.020;113.548;2023-09-19T17:53:23;9.40;;;3.10;;
72404;SDS011;60395;52.020;113.548;2023-09-19T17:56:27;6.47;;;2.67;;
72404;SDS011;60395;52.020;113.548;2023-09-19T17:59:30;7.53;;;3.20;;
72404;SDS011;60395;52.020;113.548;2023-09-19T18:02:34;10.98;;;5.40;;
72404;SDS011;60395;52.020;113.548;2023-09-19T18:05:46;8.98;;;3.88;;
72404;SDS011;60395;52.020;113.548;2023-09-19T18:08:54;10.13;;;4.80;;
72404;SDS011;60395;52.020;113.548;2023-09-19T18:11:58;12.93;;;5.47;;
72404;SDS011;60395;52.020;113.548;2023-09-19T18:15:02;16.85;;;6.68;;
72404;SDS011;60395;52.020;113.548;2023-09-19T18:18:05;16.77;;;5.70;;
72404;SDS011;60395;52.020;113.548;2023-09-19T18:21:14;19.05;;;6.50;;
72404;SDS011;60395;52.020;113.548;2023-09-19T18:24:17;24.67;;;8.65;;
72404;SDS011;60395;52.020;113.548;2023-09-19T18:27:21;21.13;;;9.32;;
72404;SDS011;60395;52.020;113.548;2023-09-19T18:30:25;23.90;;;9.98;;
72404;SDS011;60395;52.020;113.548;2023-09-19T18:33:29;22.23;;;9.68;;
72404;SDS011;60395;52.020;113.548;2023-09-19T18:36:32;16.63;;;7.90;;
72404;SDS011;60395;52.020;113.548;2023-09-19T18:39:36;13.98;;;5.80;;
72404;SDS011;60395;52.020;113.548;2023-09-19T18:42:39;12.07;;;5.47;;
72404;SDS011;60395;52.020;113.548;2023-09-19T18:45:43;15.37;;;5.27;;
72404;SDS011;60395;52.020;113.548;2023-09-19T18:48:47;11.32;;;5.32;;
72404;SDS011;60395;52.020;113.548;2023-09-19T18:51:54;12.13;;;4.63;;
72404;SDS011;60395;52.020;113.548;2023-09-19T18:54:58;13.32;;;4.65;;
72404;SDS011;60395;52.020;113.548;2023-09-19T18:58:02;15.18;;;5.38;;
72404;SDS011;60395;52.020;113.548;2023-09-19T19:01:07;17.07;;;5.23;;